KLGC/LGC METAR and TAF weather

Enter ICAO airport designator
Station Type Date Time Source
KLGC METAR 2018/12/17 17:15 UTC NOAA

KLGC 171715Z AUTO 31006KT 10SM CLR 16/05 A3019 RMK AO2 T01600049


Station Type Date Time Source
KLGC Decoded METAR 2018/12/17 17:15 UTC NOAA

La Grange, Callaway Airport, GA, United States (KLGC) 33-00-32N 085-04-21W
Dec 17, 2018 - 12:15 PM EST / 2018.12.17 1715 UTC
Wind: from the NW (310 degrees) at 7 MPH (6 KT):0
Visibility: 10 mile(s):0
Sky conditions: clear
Temperature: 60.8 F (16.0 C)
Dew Point: 40.8 F (4.9 C)
Relative Humidity: 47%
Pressure (altimeter): 30.19 in. Hg (1022 hPa)
ob: KLGC 171715Z AUTO 31006KT 10SM CLR 16/05 A3019 RMK AO2 T01600049
cycle: 17

Station Type Date Time Source
KLGC TAF UTC NOAA

Error!


Example: see airport list